Abnaki, Vermont
Current Conditions -  °F | °C
As of 9:55 AM on Thursday 23 Oct 2014 (Local Time) from KFSO Reporting Station
Overcast Overcast  
Wind Chill: 38°   Ceiling: 5000
Heat Index: 43°   Visibility: 10mi
Dew Point: 38°   Wind: 9mph
Humidity: 82%   Direction: 360°N
Pressure: 30"   Gusts: 18mph
Location:  44.841°N, 73.2779°W
Report Text: KFSO 231355Z AUTO 36008G16KT 10SM OVC050 06/03 A3000 RMK AO2 T00620033
Loading
Personal Weather Stations






























Interactive Weather Map
Tropical Storm Tracking
New forecast layout! Learn more

10-Day Weather Forecast

Advertisements
Track Severe Weather on mobile